sensor_id;sensor_type;location;lat;lon;timestamp;P1;durP1;ratioP1;P2;durP2;ratioP2
64871;SDS011;51351;51.450;6.614;2023-08-01T00:00:01;1.63;;;1.05;;
64871;SDS011;51351;51.450;6.614;2023-08-01T00:02:37;1.60;;;0.90;;
64871;SDS011;51351;51.450;6.614;2023-08-01T00:05:04;2.13;;;1.05;;
64871;SDS011;51351;51.450;6.614;2023-08-01T00:07:30;1.83;;;0.98;;
64871;SDS011;51351;51.450;6.614;2023-08-01T00:09:56;1.63;;;0.98;;
64871;SDS011;51351;51.450;6.614;2023-08-01T00:12:23;1.35;;;1.05;;
64871;SDS011;51351;51.450;6.614;2023-08-01T00:14:50;1.95;;;1.08;;
64871;SDS011;51351;51.450;6.614;2023-08-01T00:17:16;3.28;;;1.15;;
64871;SDS011;51351;51.450;6.614;2023-08-01T00:19:42;2.13;;;1.10;;
64871;SDS011;51351;51.450;6.614;2023-08-01T00:22:08;2.50;;;1.27;;
64871;SDS011;51351;51.450;6.614;2023-08-01T00:24:35;1.85;;;1.15;;
64871;SDS011;51351;51.450;6.614;2023-08-01T00:27:02;2.47;;;1.38;;
64871;SDS011;51351;51.450;6.614;2023-08-01T00:29:29;1.40;;;1.17;;
64871;SDS011;51351;51.450;6.614;2023-08-01T00:31:55;3.13;;;1.30;;
64871;SDS011;51351;51.450;6.614;2023-08-01T00:34:21;2.75;;;1.23;;
64871;SDS011;51351;51.450;6.614;2023-08-01T00:36:48;2.20;;;1.10;;
64871;SDS011;51351;51.450;6.614;2023-08-01T00:39:14;2.40;;;1.33;;
64871;SDS011;51351;51.450;6.614;2023-08-01T00:41:40;2.38;;;1.27;;
64871;SDS011;51351;51.450;6.614;2023-08-01T00:44:06;2.38;;;1.38;;
64871;SDS011;51351;51.450;6.614;2023-08-01T00:46:32;2.33;;;1.42;;
64871;SDS011;51351;51.450;6.614;2023-08-01T00:49:02;5.18;;;1.70;;
64871;SDS011;51351;51.450;6.614;2023-08-01T00:51:29;2.75;;;1.65;;
64871;SDS011;51351;51.450;6.614;2023-08-01T00:53:57;2.38;;;1.40;;
64871;SDS011;51351;51.450;6.614;2023-08-01T00:56:23;3.88;;;1.65;;
64871;SDS011;51351;51.450;6.614;2023-08-01T00:58:49;4.10;;;1.88;;
64871;SDS011;51351;51.450;6.614;2023-08-01T01:01:15;4.20;;;1.70;;
64871;SDS011;51351;51.450;6.614;2023-08-01T01:03:41;3.38;;;1.75;;
64871;SDS011;51351;51.450;6.614;2023-08-01T01:06:09;4.22;;;1.65;;
64871;SDS011;51351;51.450;6.614;2023-08-01T01:08:41;4.38;;;2.05;;
64871;SDS011;51351;51.450;6.614;2023-08-01T01:11:07;2.60;;;1.40;;
64871;SDS011;51351;51.450;6.614;2023-08-01T01:13:33;2.83;;;2.17;;
64871;SDS011;51351;51.450;6.614;2023-08-01T01:16:00;3.33;;;2.58;;
64871;SDS011;51351;51.450;6.614;2023-08-01T01:18:26;4.20;;;2.72;;
64871;SDS011;51351;51.450;6.614;2023-08-01T01:20:52;3.88;;;2.70;;
64871;SDS011;51351;51.450;6.614;2023-08-01T01:23:18;4.90;;;2.25;;
64871;SDS011;51351;51.450;6.614;2023-08-01T01:25:46;2.53;;;1.52;;
64871;SDS011;51351;51.450;6.614;2023-08-01T01:28:13;4.63;;;1.75;;
64871;SDS011;51351;51.450;6.614;2023-08-01T01:30:41;1.90;;;1.23;;
64871;SDS011;51351;51.450;6.614;2023-08-01T01:33:09;2.08;;;1.52;;
64871;SDS011;51351;51.450;6.614;2023-08-01T01:35:36;1.67;;;1.23;;
64871;SDS011;51351;51.450;6.614;2023-08-01T01:38:02;2.58;;;1.50;;
64871;SDS011;51351;51.450;6.614;2023-08-01T01:40:32;3.20;;;1.30;;
64871;SDS011;51351;51.450;6.614;2023-08-01T01:42:59;2.53;;;1.83;;
64871;SDS011;51351;51.450;6.614;2023-08-01T01:45:26;3.95;;;2.20;;
64871;SDS011;51351;51.450;6.614;2023-08-01T01:47:52;2.83;;;1.85;;
64871;SDS011;51351;51.450;6.614;2023-08-01T01:50:19;3.10;;;2.20;;
64871;SDS011;51351;51.450;6.614;2023-08-01T01:52:45;3.53;;;2.42;;
64871;SDS011;51351;51.450;6.614;2023-08-01T01:55:11;4.55;;;2.95;;
64871;SDS011;51351;51.450;6.614;2023-08-01T01:57:38;4.45;;;2.83;;
64871;SDS011;51351;51.450;6.614;2023-08-01T02:00:05;4.38;;;2.63;;
64871;SDS011;51351;51.450;6.614;2023-08-01T02:02:38;4.05;;;2.67;;
64871;SDS011;51351;51.450;6.614;2023-08-01T02:05:04;3.17;;;2.17;;
64871;SDS011;51351;51.450;6.614;2023-08-01T02:07:31;4.53;;;3.05;;
64871;SDS011;51351;51.450;6.614;2023-08-01T02:09:59;4.45;;;3.53;;
64871;SDS011;51351;51.450;6.614;2023-08-01T02:12:27;10.85;;;3.42;;
64871;SDS011;51351;51.450;6.614;2023-08-01T02:14:53;6.03;;;3.58;;
64871;SDS011;51351;51.450;6.614;2023-08-01T02:17:19;6.93;;;3.35;;
64871;SDS011;51351;51.450;6.614;2023-08-01T02:19:45;5.05;;;3.78;;
64871;SDS011;51351;51.450;6.614;2023-08-01T02:22:11;6.50;;;3.72;;
64871;SDS011;51351;51.450;6.614;2023-08-01T02:24:37;5.97;;;4.55;;
64871;SDS011;51351;51.450;6.614;2023-08-01T02:27:03;9.32;;;5.28;;
64871;SDS011;51351;51.450;6.614;2023-08-01T02:29:30;10.70;;;5.15;;
64871;SDS011;51351;51.450;6.614;2023-08-01T02:31:56;8.88;;;5.93;;
64871;SDS011;51351;51.450;6.614;2023-08-01T02:34:22;8.65;;;5.68;;
64871;SDS011;51351;51.450;6.614;2023-08-01T02:36:48;12.38;;;7.28;;
64871;SDS011;51351;51.450;6.614;2023-08-01T02:39:14;12.98;;;7.80;;
64871;SDS011;51351;51.450;6.614;2023-08-01T02:41:40;11.57;;;8.43;;
64871;SDS011;51351;51.450;6.614;2023-08-01T02:44:06;14.52;;;9.10;;
64871;SDS011;51351;51.450;6.614;2023-08-01T02:46:32;13.20;;;7.90;;
64871;SDS011;51351;51.450;6.614;2023-08-01T02:48:58;12.57;;;8.57;;
64871;SDS011;51351;51.450;6.614;2023-08-01T02:51:24;13.15;;;8.95;;
64871;SDS011;51351;51.450;6.614;2023-08-01T02:53:50;12.45;;;8.65;;
64871;SDS011;51351;51.450;6.614;2023-08-01T02:56:16;17.88;;;9.48;;
64871;SDS011;51351;51.450;6.614;2023-08-01T02:58:42;15.13;;;8.73;;
64871;SDS011;51351;51.450;6.614;2023-08-01T03:01:08;14.60;;;8.52;;
64871;SDS011;51351;51.450;6.614;2023-08-01T03:03:36;17.30;;;8.48;;
64871;SDS011;51351;51.450;6.614;2023-08-01T03:06:02;14.57;;;8.73;;
64871;SDS011;51351;51.450;6.614;2023-08-01T03:08:28;18.15;;;8.65;;
64871;SDS011;51351;51.450;6.614;2023-08-01T03:10:55;16.27;;;8.93;;
64871;SDS011;51351;51.450;6.614;2023-08-01T03:13:22;20.17;;;10.73;;
64871;SDS011;51351;51.450;6.614;2023-08-01T03:15:48;22.50;;;9.25;;
64871;SDS011;51351;51.450;6.614;2023-08-01T03:18:14;13.05;;;9.20;;
64871;SDS011;51351;51.450;6.614;2023-08-01T03:20:40;16.42;;;9.15;;
64871;SDS011;51351;51.450;6.614;2023-08-01T03:23:06;12.95;;;8.40;;
64871;SDS011;51351;51.450;6.614;2023-08-01T03:25:32;18.60;;;8.93;;
64871;SDS011;51351;51.450;6.614;2023-08-01T03:27:58;16.55;;;8.30;;
64871;SDS011;51351;51.450;6.614;2023-08-01T03:30:24;14.98;;;9.68;;
64871;SDS011;51351;51.450;6.614;2023-08-01T03:32:51;12.93;;;8.85;;
64871;SDS011;51351;51.450;6.614;2023-08-01T03:35:17;16.27;;;8.77;;
64871;SDS011;51351;51.450;6.614;2023-08-01T03:37:43;18.10;;;9.50;;
64871;SDS011;51351;51.450;6.614;2023-08-01T03:40:09;17.38;;;10.05;;
64871;SDS011;51351;51.450;6.614;2023-08-01T03:45:02;17.10;;;9.68;;
64871;SDS011;51351;51.450;6.614;2023-08-01T03:47:29;18.55;;;10.27;;
64871;SDS011;51351;51.450;6.614;2023-08-01T03:49:56;13.73;;;8.48;;
64871;SDS011;51351;51.450;6.614;2023-08-01T03:52:22;16.85;;;9.68;;
64871;SDS011;51351;51.450;6.614;2023-08-01T03:54:48;18.00;;;10.25;;
64871;SDS011;51351;51.450;6.614;2023-08-01T03:57:14;15.52;;;9.68;;
64871;SDS011;51351;51.450;6.614;2023-08-01T03:59:40;21.13;;;9.57;;
64871;SDS011;51351;51.450;6.614;2023-08-01T04:02:06;18.17;;;10.35;;
64871;SDS011;51351;51.450;6.614;2023-08-01T04:04:32;22.63;;;9.93;;
64871;SDS011;51351;51.450;6.614;2023-08-01T04:06:59;22.27;;;10.68;;
64871;SDS011;51351;51.450;6.614;2023-08-01T04:09:25;18.48;;;10.55;;
64871;SDS011;51351;51.450;6.614;2023-08-01T04:11:51;21.70;;;10.07;;
64871;SDS011;51351;51.450;6.614;2023-08-01T04:14:17;17.42;;;11.95;;
64871;SDS011;51351;51.450;6.614;2023-08-01T04:16:43;17.67;;;9.73;;
64871;SDS011;51351;51.450;6.614;2023-08-01T04:19:09;16.17;;;10.07;;
64871;SDS011;51351;51.450;6.614;2023-08-01T04:21:36;15.23;;;9.82;;
64871;SDS011;51351;51.450;6.614;2023-08-01T04:24:02;18.55;;;11.15;;
64871;SDS011;51351;51.450;6.614;2023-08-01T04:26:28;20.05;;;10.88;;
64871;SDS011;51351;51.450;6.614;2023-08-01T04:28:54;20.67;;;11.63;;
64871;SDS011;51351;51.450;6.614;2023-08-01T04:31:20;19.40;;;11.55;;
64871;SDS011;51351;51.450;6.614;2023-08-01T04:33:46;19.15;;;10.50;;
64871;SDS011;51351;51.450;6.614;2023-08-01T04:36:12;22.20;;;12.25;;
64871;SDS011;51351;51.450;6.614;2023-08-01T04:38:38;18.08;;;10.15;;
64871;SDS011;51351;51.450;6.614;2023-08-01T04:41:04;18.30;;;10.85;;
64871;SDS011;51351;51.450;6.614;2023-08-01T04:43:30;22.27;;;11.30;;
64871;SDS011;51351;51.450;6.614;2023-08-01T04:45:56;17.92;;;10.63;;
64871;SDS011;51351;51.450;6.614;2023-08-01T04:48:22;19.58;;;9.88;;
64871;SDS011;51351;51.450;6.614;2023-08-01T04:50:48;19.63;;;11.57;;
64871;SDS011;51351;51.450;6.614;2023-08-01T04:53:14;19.52;;;10.82;;
64871;SDS011;51351;51.450;6.614;2023-08-01T04:55:40;18.17;;;10.77;;
64871;SDS011;51351;51.450;6.614;2023-08-01T04:58:06;23.33;;;11.80;;
64871;SDS011;51351;51.450;6.614;2023-08-01T05:00:32;24.42;;;13.13;;
64871;SDS011;51351;51.450;6.614;2023-08-01T05:02:58;22.27;;;12.20;;
64871;SDS011;51351;51.450;6.614;2023-08-01T05:05:24;20.95;;;13.95;;
64871;SDS011;51351;51.450;6.614;2023-08-01T05:07:51;17.20;;;12.02;;
64871;SDS011;51351;51.450;6.614;2023-08-01T05:10:17;23.73;;;13.75;;
64871;SDS011;51351;51.450;6.614;2023-08-01T05:12:43;23.02;;;13.50;;
64871;SDS011;51351;51.450;6.614;2023-08-01T05:15:09;25.23;;;12.50;;
64871;SDS011;51351;51.450;6.614;2023-08-01T05:17:35;25.83;;;12.88;;
64871;SDS011;51351;51.450;6.614;2023-08-01T05:20:02;20.85;;;12.68;;
64871;SDS011;51351;51.450;6.614;2023-08-01T05:22:29;22.08;;;13.98;;
64871;SDS011;51351;51.450;6.614;2023-08-01T05:24:56;22.77;;;13.13;;
64871;SDS011;51351;51.450;6.614;2023-08-01T05:27:22;23.95;;;13.75;;
64871;SDS011;51351;51.450;6.614;2023-08-01T05:29:48;26.48;;;11.43;;
64871;SDS011;51351;51.450;6.614;2023-08-01T05:32:14;21.05;;;12.02;;
64871;SDS011;51351;51.450;6.614;2023-08-01T05:34:40;21.58;;;11.95;;
64871;SDS011;51351;51.450;6.614;2023-08-01T05:37:06;24.85;;;13.48;;
64871;SDS011;51351;51.450;6.614;2023-08-01T05:39:32;25.40;;;13.25;;
64871;SDS011;51351;51.450;6.614;2023-08-01T05:41:58;29.27;;;11.77;;
64871;SDS011;51351;51.450;6.614;2023-08-01T05:44:24;24.60;;;12.52;;
64871;SDS011;51351;51.450;6.614;2023-08-01T05:46:50;22.67;;;12.25;;
64871;SDS011;51351;51.450;6.614;2023-08-01T05:49:16;18.65;;;12.63;;
64871;SDS011;51351;51.450;6.614;2023-08-01T05:51:42;21.13;;;12.23;;
64871;SDS011;51351;51.450;6.614;2023-08-01T05:54:08;18.52;;;11.10;;
64871;SDS011;51351;51.450;6.614;2023-08-01T05:56:34;18.80;;;11.70;;
64871;SDS011;51351;51.450;6.614;2023-08-01T05:59:00;24.08;;;12.15;;
64871;SDS011;51351;51.450;6.614;2023-08-01T06:01:26;20.25;;;11.38;;
64871;SDS011;51351;51.450;6.614;2023-08-01T06:03:52;23.58;;;12.45;;
64871;SDS011;51351;51.450;6.614;2023-08-01T06:06:18;19.35;;;12.18;;
64871;SDS011;51351;51.450;6.614;2023-08-01T06:08:44;24.33;;;11.93;;
64871;SDS011;51351;51.450;6.614;2023-08-01T06:11:10;16.98;;;9.88;;
64871;SDS011;51351;51.450;6.614;2023-08-01T06:13:36;21.17;;;11.32;;
64871;SDS011;51351;51.450;6.614;2023-08-01T06:16:02;15.23;;;10.63;;
64871;SDS011;51351;51.450;6.614;2023-08-01T06:18:28;15.60;;;10.40;;
64871;SDS011;51351;51.450;6.614;2023-08-01T06:20:54;18.00;;;10.82;;
64871;SDS011;51351;51.450;6.614;2023-08-01T06:23:21;18.25;;;11.00;;
64871;SDS011;51351;51.450;6.614;2023-08-01T06:25:47;18.80;;;12.13;;
64871;SDS011;51351;51.450;6.614;2023-08-01T06:28:13;20.02;;;12.35;;
64871;SDS011;51351;51.450;6.614;2023-08-01T06:30:39;18.95;;;11.07;;
64871;SDS011;51351;51.450;6.614;2023-08-01T06:33:05;16.25;;;10.38;;
64871;SDS011;51351;51.450;6.614;2023-08-01T06:35:31;15.70;;;10.45;;
64871;SDS011;51351;51.450;6.614;2023-08-01T06:37:57;24.02;;;11.25;;
64871;SDS011;51351;51.450;6.614;2023-08-01T06:40:23;17.13;;;10.45;;
64871;SDS011;51351;51.450;6.614;2023-08-01T06:42:49;15.52;;;9.55;;
64871;SDS011;51351;51.450;6.614;2023-08-01T06:45:15;17.48;;;8.90;;
64871;SDS011;51351;51.450;6.614;2023-08-01T06:47:41;15.75;;;8.48;;
64871;SDS011;51351;51.450;6.614;2023-08-01T06:50:07;15.00;;;8.70;;
64871;SDS011;51351;51.450;6.614;2023-08-01T06:54:59;20.50;;;8.15;;
64871;SDS011;51351;51.450;6.614;2023-08-01T06:57:25;13.30;;;7.35;;
64871;SDS011;51351;51.450;6.614;2023-08-01T06:59:51;13.30;;;7.90;;
64871;SDS011;51351;51.450;6.614;2023-08-01T07:02:17;13.30;;;7.53;;
64871;SDS011;51351;51.450;6.614;2023-08-01T07:04:43;12.32;;;7.28;;
64871;SDS011;51351;51.450;6.614;2023-08-01T07:07:09;15.63;;;9.77;;
64871;SDS011;51351;51.450;6.614;2023-08-01T07:09:35;11.40;;;6.63;;
64871;SDS011;51351;51.450;6.614;2023-08-01T07:12:02;9.88;;;5.95;;
64871;SDS011;51351;51.450;6.614;2023-08-01T07:14:28;10.15;;;6.80;;
64871;SDS011;51351;51.450;6.614;2023-08-01T07:16:54;10.90;;;7.40;;
64871;SDS011;51351;51.450;6.614;2023-08-01T07:19:21;16.60;;;6.53;;
64871;SDS011;51351;51.450;6.614;2023-08-01T07:21:47;12.40;;;6.78;;
64871;SDS011;51351;51.450;6.614;2023-08-01T07:24:14;12.15;;;6.38;;
64871;SDS011;51351;51.450;6.614;2023-08-01T07:26:41;13.07;;;7.47;;
64871;SDS011;51351;51.450;6.614;2023-08-01T07:29:07;13.73;;;6.95;;
64871;SDS011;51351;51.450;6.614;2023-08-01T07:31:36;9.38;;;6.38;;
64871;SDS011;51351;51.450;6.614;2023-08-01T07:34:02;11.20;;;7.00;;
64871;SDS011;51351;51.450;6.614;2023-08-01T07:36:28;13.00;;;7.25;;
64871;SDS011;51351;51.450;6.614;2023-08-01T07:38:54;10.55;;;6.50;;
64871;SDS011;51351;51.450;6.614;2023-08-01T07:41:21;11.07;;;6.55;;
64871;SDS011;51351;51.450;6.614;2023-08-01T07:43:47;11.63;;;6.35;;
64871;SDS011;51351;51.450;6.614;2023-08-01T07:46:14;11.77;;;6.95;;
64871;SDS011;51351;51.450;6.614;2023-08-01T07:48:40;9.95;;;5.97;;
64871;SDS011;51351;51.450;6.614;2023-08-01T07:51:06;10.65;;;6.07;;
64871;SDS011;51351;51.450;6.614;2023-08-01T07:53:33;10.65;;;7.32;;
64871;SDS011;51351;51.450;6.614;2023-08-01T07:56:00;12.13;;;6.82;;
64871;SDS011;51351;51.450;6.614;2023-08-01T07:58:28;10.95;;;6.15;;
64871;SDS011;51351;51.450;6.614;2023-08-01T08:00:54;13.93;;;6.05;;
64871;SDS011;51351;51.450;6.614;2023-08-01T08:03:20;11.30;;;5.72;;
64871;SDS011;51351;51.450;6.614;2023-08-01T08:05:49;9.52;;;5.97;;
64871;SDS011;51351;51.450;6.614;2023-08-01T08:08:15;11.65;;;6.53;;
64871;SDS011;51351;51.450;6.614;2023-08-01T08:10:41;8.52;;;5.93;;
64871;SDS011;51351;51.450;6.614;2023-08-01T08:13:07;13.65;;;6.40;;
64871;SDS011;51351;51.450;6.614;2023-08-01T08:15:33;7.43;;;5.03;;
64871;SDS011;51351;51.450;6.614;2023-08-01T08:18:00;9.65;;;5.75;;
64871;SDS011;51351;51.450;6.614;2023-08-01T08:20:30;11.45;;;6.70;;
64871;SDS011;51351;51.450;6.614;2023-08-01T08:22:57;11.40;;;6.28;;
64871;SDS011;51351;51.450;6.614;2023-08-01T08:25:23;13.25;;;6.38;;
64871;SDS011;51351;51.450;6.614;2023-08-01T08:27:49;10.63;;;5.68;;
64871;SDS011;51351;51.450;6.614;2023-08-01T08:30:15;8.00;;;5.07;;
64871;SDS011;51351;51.450;6.614;2023-08-01T08:32:41;10.93;;;5.93;;
64871;SDS011;51351;51.450;6.614;2023-08-01T08:37:33;9.02;;;5.28;;
64871;SDS011;51351;51.450;6.614;2023-08-01T08:39:59;10.25;;;6.25;;
64871;SDS011;51351;51.450;6.614;2023-08-01T08:42:25;9.95;;;5.50;;
64871;SDS011;51351;51.450;6.614;2023-08-01T08:44:54;10.05;;;5.95;;
64871;SDS011;51351;51.450;6.614;2023-08-01T08:47:24;9.63;;;5.68;;
64871;SDS011;51351;51.450;6.614;2023-08-01T08:49:51;21.48;;;6.25;;
64871;SDS011;51351;51.450;6.614;2023-08-01T08:52:18;7.65;;;4.90;;
64871;SDS011;51351;51.450;6.614;2023-08-01T08:54:44;8.48;;;5.70;;
64871;SDS011;51351;51.450;6.614;2023-08-01T08:57:11;8.32;;;5.20;;
64871;SDS011;51351;51.450;6.614;2023-08-01T08:59:38;8.23;;;4.82;;
64871;SDS011;51351;51.450;6.614;2023-08-01T09:02:05;11.25;;;4.32;;
64871;SDS011;51351;51.450;6.614;2023-08-01T09:04:32;10.35;;;4.03;;
64871;SDS011;51351;51.450;6.614;2023-08-01T09:07:01;5.05;;;3.15;;
64871;SDS011;51351;51.450;6.614;2023-08-01T09:09:32;6.82;;;3.05;;
64871;SDS011;51351;51.450;6.614;2023-08-01T09:11:58;4.50;;;3.15;;
64871;SDS011;51351;51.450;6.614;2023-08-01T09:14:24;8.40;;;3.75;;
64871;SDS011;51351;51.450;6.614;2023-08-01T09:16:50;5.40;;;3.10;;
64871;SDS011;51351;51.450;6.614;2023-08-01T09:19:17;6.55;;;3.45;;
64871;SDS011;51351;51.450;6.614;2023-08-01T09:21:44;6.15;;;2.92;;
64871;SDS011;51351;51.450;6.614;2023-08-01T09:24:17;7.28;;;3.17;;
64871;SDS011;51351;51.450;6.614;2023-08-01T09:26:44;5.05;;;2.72;;
64871;SDS011;51351;51.450;6.614;2023-08-01T09:29:11;4.63;;;2.83;;
64871;SDS011;51351;51.450;6.614;2023-08-01T09:31:41;7.47;;;3.10;;
64871;SDS011;51351;51.450;6.614;2023-08-01T09:34:21;4.80;;;2.63;;
64871;SDS011;51351;51.450;6.614;2023-08-01T09:36:49;5.15;;;2.60;;
64871;SDS011;51351;51.450;6.614;2023-08-01T09:39:16;4.00;;;2.90;;
64871;SDS011;51351;51.450;6.614;2023-08-01T09:41:44;5.05;;;3.00;;
64871;SDS011;51351;51.450;6.614;2023-08-01T09:46:37;3.88;;;2.38;;
64871;SDS011;51351;51.450;6.614;2023-08-01T09:51:33;5.47;;;2.47;;
64871;SDS011;51351;51.450;6.614;2023-08-01T09:53:59;5.22;;;2.92;;
64871;SDS011;51351;51.450;6.614;2023-08-01T09:56:26;4.43;;;2.28;;
64871;SDS011;51351;51.450;6.614;2023-08-01T09:58:54;7.25;;;2.78;;
64871;SDS011;51351;51.450;6.614;2023-08-01T10:01:24;4.50;;;2.28;;
64871;SDS011;51351;51.450;6.614;2023-08-01T10:03:51;3.65;;;2.70;;
64871;SDS011;51351;51.450;6.614;2023-08-01T10:06:21;4.97;;;2.58;;
64871;SDS011;51351;51.450;6.614;2023-08-01T10:08:50;5.07;;;3.20;;
64871;SDS011;51351;51.450;6.614;2023-08-01T10:11:18;4.22;;;3.42;;
64871;SDS011;51351;51.450;6.614;2023-08-01T10:13:45;3.97;;;2.85;;
64871;SDS011;51351;51.450;6.614;2023-08-01T10:16:12;4.70;;;2.50;;
64871;SDS011;51351;51.450;6.614;2023-08-01T10:18:40;4.80;;;2.58;;
64871;SDS011;51351;51.450;6.614;2023-08-01T10:21:07;3.20;;;2.13;;
64871;SDS011;51351;51.450;6.614;2023-08-01T10:23:35;6.15;;;2.63;;
64871;SDS011;51351;51.450;6.614;2023-08-01T10:26:03;4.35;;;2.70;;
64871;SDS011;51351;51.450;6.614;2023-08-01T10:28:35;4.30;;;2.53;;
64871;SDS011;51351;51.450;6.614;2023-08-01T10:31:09;4.85;;;2.55;;
64871;SDS011;51351;51.450;6.614;2023-08-01T10:33:46;4.53;;;1.95;;
64871;SDS011;51351;51.450;6.614;2023-08-01T10:38:47;7.35;;;2.53;;
64871;SDS011;51351;51.450;6.614;2023-08-01T10:43:46;6.30;;;3.30;;
64871;SDS011;51351;51.450;6.614;2023-08-01T10:46:12;7.55;;;3.70;;
64871;SDS011;51351;51.450;6.614;2023-08-01T10:48:48;3.90;;;2.72;;
64871;SDS011;51351;51.450;6.614;2023-08-01T10:51:18;4.20;;;2.90;;
64871;SDS011;51351;51.450;6.614;2023-08-01T10:56:18;5.32;;;2.60;;
64871;SDS011;51351;51.450;6.614;2023-08-01T10:58:46;3.90;;;2.30;;
64871;SDS011;51351;51.450;6.614;2023-08-01T11:01:12;2.83;;;1.77;;
64871;SDS011;51351;51.450;6.614;2023-08-01T11:03:39;4.03;;;2.53;;
64871;SDS011;51351;51.450;6.614;2023-08-01T11:06:07;3.63;;;2.05;;
64871;SDS011;51351;51.450;6.614;2023-08-01T11:08:37;6.70;;;2.03;;
64871;SDS011;51351;51.450;6.614;2023-08-01T11:11:07;3.00;;;1.38;;
64871;SDS011;51351;51.450;6.614;2023-08-01T11:13:36;3.92;;;2.47;;
64871;SDS011;51351;51.450;6.614;2023-08-01T11:16:05;4.68;;;2.70;;
64871;SDS011;51351;51.450;6.614;2023-08-01T11:18:44;4.05;;;2.33;;
64871;SDS011;51351;51.450;6.614;2023-08-01T11:21:10;4.88;;;2.10;;
64871;SDS011;51351;51.450;6.614;2023-08-01T11:23:36;4.88;;;1.60;;
64871;SDS011;51351;51.450;6.614;2023-08-01T11:26:06;4.10;;;2.03;;
64871;SDS011;51351;51.450;6.614;2023-08-01T11:28:34;3.00;;;1.45;;
64871;SDS011;51351;51.450;6.614;2023-08-01T11:31:00;5.53;;;1.45;;
64871;SDS011;51351;51.450;6.614;2023-08-01T11:33:26;2.88;;;1.95;;
64871;SDS011;51351;51.450;6.614;2023-08-01T11:35:52;6.88;;;1.65;;
64871;SDS011;51351;51.450;6.614;2023-08-01T11:38:23;3.63;;;1.63;;
64871;SDS011;51351;51.450;6.614;2023-08-01T11:40:51;3.65;;;1.55;;
64871;SDS011;51351;51.450;6.614;2023-08-01T11:43:18;3.72;;;1.60;;
64871;SDS011;51351;51.450;6.614;2023-08-01T11:45:56;7.00;;;1.70;;
64871;SDS011;51351;51.450;6.614;2023-08-01T11:48:24;5.18;;;1.55;;
64871;SDS011;51351;51.450;6.614;2023-08-01T11:50:57;4.90;;;1.80;;
64871;SDS011;51351;51.450;6.614;2023-08-01T11:53:24;5.78;;;2.05;;
64871;SDS011;51351;51.450;6.614;2023-08-01T11:55:50;5.05;;;2.15;;
64871;SDS011;51351;51.450;6.614;2023-08-01T12:01:02;5.15;;;1.75;;
64871;SDS011;51351;51.450;6.614;2023-08-01T12:03:29;5.10;;;1.73;;
64871;SDS011;51351;51.450;6.614;2023-08-01T12:06:05;3.53;;;2.65;;
64871;SDS011;51351;51.450;6.614;2023-08-01T12:08:33;7.05;;;2.90;;
64871;SDS011;51351;51.450;6.614;2023-08-01T12:11:00;6.05;;;2.08;;
64871;SDS011;51351;51.450;6.614;2023-08-01T12:15:52;4.30;;;2.22;;
64871;SDS011;51351;51.450;6.614;2023-08-01T12:20:54;3.42;;;1.60;;
64871;SDS011;51351;51.450;6.614;2023-08-01T12:23:21;3.97;;;2.00;;
64871;SDS011;51351;51.450;6.614;2023-08-01T12:25:47;1.92;;;1.30;;
64871;SDS011;51351;51.450;6.614;2023-08-01T12:28:13;4.25;;;1.70;;
64871;SDS011;51351;51.450;6.614;2023-08-01T12:30:40;3.05;;;1.85;;
64871;SDS011;51351;51.450;6.614;2023-08-01T12:33:07;4.00;;;1.58;;
64871;SDS011;51351;51.450;6.614;2023-08-01T12:35:34;5.25;;;1.63;;
64871;SDS011;51351;51.450;6.614;2023-08-01T12:38:00;3.83;;;1.73;;
64871;SDS011;51351;51.450;6.614;2023-08-01T12:40:26;5.00;;;1.50;;
64871;SDS011;51351;51.450;6.614;2023-08-01T12:42:52;5.40;;;1.63;;
64871;SDS011;51351;51.450;6.614;2023-08-01T12:45:18;6.32;;;2.40;;
64871;SDS011;51351;51.450;6.614;2023-08-01T12:47:44;4.93;;;2.15;;
64871;SDS011;51351;51.450;6.614;2023-08-01T12:50:10;5.82;;;2.05;;
64871;SDS011;51351;51.450;6.614;2023-08-01T12:52:36;4.07;;;1.65;;
64871;SDS011;51351;51.450;6.614;2023-08-01T12:55:03;4.22;;;1.85;;
64871;SDS011;51351;51.450;6.614;2023-08-01T12:57:29;3.13;;;1.77;;
64871;SDS011;51351;51.450;6.614;2023-08-01T12:59:55;4.82;;;2.25;;
64871;SDS011;51351;51.450;6.614;2023-08-01T13:02:21;5.65;;;1.95;;
64871;SDS011;51351;51.450;6.614;2023-08-01T13:04:47;6.35;;;2.33;;
64871;SDS011;51351;51.450;6.614;2023-08-01T13:07:13;4.57;;;2.40;;
64871;SDS011;51351;51.450;6.614;2023-08-01T13:12:05;4.65;;;2.42;;
64871;SDS011;51351;51.450;6.614;2023-08-01T13:14:32;3.35;;;1.63;;
64871;SDS011;51351;51.450;6.614;2023-08-01T13:16:58;3.90;;;1.50;;
64871;SDS011;51351;51.450;6.614;2023-08-01T13:19:25;4.60;;;1.65;;
64871;SDS011;51351;51.450;6.614;2023-08-01T13:21:51;5.07;;;1.42;;
64871;SDS011;51351;51.450;6.614;2023-08-01T13:24:17;6.95;;;1.55;;
64871;SDS011;51351;51.450;6.614;2023-08-01T13:26:43;4.13;;;1.90;;
64871;SDS011;51351;51.450;6.614;2023-08-01T13:29:09;2.90;;;1.20;;
64871;SDS011;51351;51.450;6.614;2023-08-01T13:31:35;3.92;;;1.75;;
64871;SDS011;51351;51.450;6.614;2023-08-01T13:34:01;3.55;;;1.30;;
64871;SDS011;51351;51.450;6.614;2023-08-01T13:36:27;4.43;;;1.40;;
64871;SDS011;51351;51.450;6.614;2023-08-01T13:41:19;3.92;;;1.75;;
64871;SDS011;51351;51.450;6.614;2023-08-01T13:43:45;3.47;;;1.45;;
64871;SDS011;51351;51.450;6.614;2023-08-01T13:48:41;6.10;;;1.70;;
64871;SDS011;51351;51.450;6.614;2023-08-01T13:51:07;6.75;;;2.15;;
64871;SDS011;51351;51.450;6.614;2023-08-01T13:53:33;4.05;;;1.23;;
64871;SDS011;51351;51.450;6.614;2023-08-01T13:58:25;6.90;;;1.65;;
64871;SDS011;51351;51.450;6.614;2023-08-01T14:00:51;2.90;;;1.10;;
64871;SDS011;51351;51.450;6.614;2023-08-01T14:03:17;5.25;;;1.30;;
64871;SDS011;51351;51.450;6.614;2023-08-01T14:05:43;4.70;;;1.15;;
64871;SDS011;51351;51.450;6.614;2023-08-01T14:08:09;4.72;;;1.50;;
64871;SDS011;51351;51.450;6.614;2023-08-01T14:10:35;5.63;;;1.65;;
64871;SDS011;51351;51.450;6.614;2023-08-01T14:13:01;3.42;;;1.23;;
64871;SDS011;51351;51.450;6.614;2023-08-01T14:15:27;7.40;;;2.20;;
64871;SDS011;51351;51.450;6.614;2023-08-01T14:20:19;3.28;;;1.30;;
64871;SDS011;51351;51.450;6.614;2023-08-01T14:25:11;3.03;;;1.10;;
64871;SDS011;51351;51.450;6.614;2023-08-01T14:27:37;4.78;;;1.38;;
64871;SDS011;51351;51.450;6.614;2023-08-01T14:30:04;3.92;;;1.35;;
64871;SDS011;51351;51.450;6.614;2023-08-01T14:32:32;3.22;;;1.13;;
64871;SDS011;51351;51.450;6.614;2023-08-01T14:34:58;2.67;;;1.70;;
64871;SDS011;51351;51.450;6.614;2023-08-01T14:37:24;4.15;;;2.03;;
64871;SDS011;51351;51.450;6.614;2023-08-01T14:39:51;3.83;;;1.23;;
64871;SDS011;51351;51.450;6.614;2023-08-01T14:44:43;4.68;;;1.48;;
64871;SDS011;51351;51.450;6.614;2023-08-01T14:47:09;2.00;;;0.80;;
64871;SDS011;51351;51.450;6.614;2023-08-01T14:49:35;2.80;;;1.35;;
64871;SDS011;51351;51.450;6.614;2023-08-01T14:52:02;3.17;;;1.13;;
64871;SDS011;51351;51.450;6.614;2023-08-01T14:54:29;2.97;;;0.82;;
64871;SDS011;51351;51.450;6.614;2023-08-01T14:56:56;2.95;;;1.20;;
64871;SDS011;51351;51.450;6.614;2023-08-01T14:59:22;4.45;;;1.10;;
64871;SDS011;51351;51.450;6.614;2023-08-01T15:04:14;3.47;;;0.90;;
64871;SDS011;51351;51.450;6.614;2023-08-01T15:09:06;3.67;;;1.17;;
64871;SDS011;51351;51.450;6.614;2023-08-01T15:13:58;2.65;;;1.23;;
64871;SDS011;51351;51.450;6.614;2023-08-01T15:18:49;3.35;;;0.90;;
64871;SDS011;51351;51.450;6.614;2023-08-01T15:21:15;3.50;;;0.95;;
64871;SDS011;51351;51.450;6.614;2023-08-01T15:23:41;3.88;;;1.05;;
64871;SDS011;51351;51.450;6.614;2023-08-01T15:26:07;2.53;;;1.00;;
64871;SDS011;51351;51.450;6.614;2023-08-01T15:28:33;4.15;;;1.40;;
64871;SDS011;51351;51.450;6.614;2023-08-01T15:31:02;3.65;;;1.30;;